BLY13EX EGNH-CYHM
Flight info
| Callsign | BLY13EX |
|---|---|
| Flight time | N/A |
| Altitude | 38000 |
| Route | PENIL UL70 BABRA M144 BAGSO DCT SLG DCT DOGAL/M077F380 DCT 54N020W 54N030W 53N040W 51N050W DCT ALLRY/N0439F380 DCT DANOL Q951 SIKBO DCT YYZ TICAT1 |
| Aircraft | A319/M-SDE3FGHIRWY/LB1 |
Departure
| Time | 2026-04-29 19:03 |
|---|---|
| Airport | Blackpool Airport (EGNH) |
Arrival
| Time | N/A |
|---|---|
| Airport | John C. Munro Hamilton International Airport (CYHM) |
| Time | Latitude | Longitude | Altitude | Speed | Heading |
|---|---|---|---|---|---|
| 2026-04-29 18:29 | 53.77743 | -3.04172 | 50 ft | 0 kts | 245° |
| 2026-04-29 18:58 | 53.77743 | -3.04173 | 50 ft | 0 kts | 245° |
| 2026-04-29 18:59 | 53.77733 | -3.04183 | 51 ft | 4 kts | 199° |
| 2026-04-29 18:59 | 53.77692 | -3.04174 | 50 ft | 6 kts | 170° |
| 2026-04-29 18:59 | 53.77645 | -3.04167 | 50 ft | 7 kts | 186° |
| 2026-04-29 18:59 | 53.77601 | -3.04209 | 49 ft | 8 kts | 213° |
| 2026-04-29 19:00 | 53.77555 | -3.04259 | 48 ft | 8 kts | 212° |
| 2026-04-29 19:00 | 53.77507 | -3.04309 | 50 ft | 8 kts | 211° |
| 2026-04-29 19:00 | 53.77456 | -3.04362 | 50 ft | 9 kts | 211° |
| 2026-04-29 19:00 | 53.77398 | -3.04399 | 48 ft | 9 kts | 187° |
| 2026-04-29 19:01 | 53.77334 | -3.04394 | 50 ft | 10 kts | 173° |
| 2026-04-29 19:01 | 53.77315 | -3.04387 | 50 ft | 0 kts | 166° |
| 2026-04-29 19:02 | 53.77295 | -3.04377 | 48 ft | 9 kts | 163° |
| 2026-04-29 19:02 | 53.77245 | -3.04342 | 47 ft | 13 kts | 149° |
| 2026-04-29 19:02 | 53.77217 | -3.04138 | 48 ft | 18 kts | 95° |
| 2026-04-29 19:02 | 53.77187 | -3.03514 | 53 ft | 88 kts | 95° |
| 2026-04-29 19:03 | 53.77119 | -3.02142 | 117 ft | 137 kts | 95° |
| 2026-04-29 19:03 | 53.77045 | -3.00567 | 829 ft | 131 kts | 97° |
| 2026-04-29 19:03 | 53.76971 | -2.99050 | 1537 ft | 128 kts | 94° |
| 2026-04-29 19:03 | 53.76893 | -2.97521 | 2105 ft | 137 kts | 96° |
| 2026-04-29 19:04 | 53.76800 | -2.95788 | 2470 ft | 159 kts | 97° |
| 2026-04-29 19:04 | 53.76694 | -2.93849 | 2946 ft | 170 kts | 98° |
| 2026-04-29 19:04 | 53.76585 | -2.91831 | 3584 ft | 175 kts | 98° |
| 2026-04-29 19:04 | 53.76689 | -2.89749 | 4167 ft | 190 kts | 71° |
| 2026-04-29 19:05 | 53.77723 | -2.88187 | 4760 ft | 218 kts | 30° |
| 2026-04-29 19:05 | 53.79262 | -2.87630 | 5028 ft | 230 kts | 13° |
| 2026-04-29 19:05 | 53.80865 | -2.87514 | 5013 ft | 229 kts | 7° |
| 2026-04-29 19:05 | 53.82464 | -2.87594 | 5011 ft | 234 kts | 356° |
| 2026-04-29 19:06 | 53.83928 | -2.88888 | 5012 ft | 245 kts | 318° |
| 2026-04-29 19:06 | 53.84790 | -2.91331 | 5011 ft | 244 kts | 282° |
| 2026-04-29 19:06 | 53.85066 | -2.97005 | 5041 ft | 242 kts | 271° |
| 2026-04-29 19:07 | 53.85229 | -2.99845 | 5038 ft | 242 kts | 272° |
| 2026-04-29 19:07 | 53.85340 | -3.01719 | 5036 ft | 242 kts | 272° |
| 2026-04-29 19:07 | 53.85557 | -3.05510 | 5036 ft | 242 kts | 271° |
| 2026-04-29 19:07 | 53.85715 | -3.08348 | 5040 ft | 242 kts | 271° |
| 2026-04-29 19:08 | 53.85868 | -3.11194 | 5040 ft | 242 kts | 271° |
| 2026-04-29 19:08 | 53.85880 | -3.14022 | 5043 ft | 238 kts | 256° |
| 2026-04-29 19:08 | 53.85401 | -3.16658 | 5025 ft | 238 kts | 236° |
| 2026-04-29 19:08 | 53.84405 | -3.19057 | 5278 ft | 260 kts | 223° |
| 2026-04-29 19:09 | 53.83209 | -3.21506 | 5884 ft | 276 kts | 225° |
| 2026-04-29 19:09 | 53.81986 | -3.24057 | 6760 ft | 282 kts | 225° |
| 2026-04-29 19:09 | 53.80747 | -3.26658 | 7617 ft | 286 kts | 226° |
| 2026-04-29 19:09 | 53.79491 | -3.29294 | 8470 ft | 290 kts | 226° |
| 2026-04-29 19:10 | 53.78214 | -3.31972 | 9329 ft | 294 kts | 226° |
| 2026-04-29 19:10 | 53.76899 | -3.34719 | 10200 ft | 299 kts | 226° |
| 2026-04-29 19:10 | 53.75562 | -3.37498 | 10693 ft | 316 kts | 226° |
| 2026-04-29 19:10 | 53.74124 | -3.40465 | 11040 ft | 335 kts | 226° |
| 2026-04-29 19:11 | 53.72633 | -3.43549 | 11711 ft | 342 kts | 226° |
| 2026-04-29 19:11 | 53.71125 | -3.46676 | 12489 ft | 345 kts | 226° |
| 2026-04-29 19:11 | 53.69601 | -3.49838 | 13276 ft | 348 kts | 226° |
| 2026-04-29 19:11 | 53.68069 | -3.53015 | 14060 ft | 351 kts | 226° |
| 2026-04-29 19:12 | 53.66515 | -3.56223 | 14757 ft | 354 kts | 226° |
| 2026-04-29 19:12 | 53.64953 | -3.59437 | 15423 ft | 356 kts | 226° |
| 2026-04-29 19:12 | 53.63479 | -3.62838 | 16072 ft | 364 kts | 235° |
| 2026-04-29 19:12 | 53.63084 | -3.64063 | 16300 ft | 368 kts | 239° |
| 2026-04-29 19:13 | 53.61920 | -3.71153 | 17327 ft | 386 kts | 262° |
| 2026-04-29 19:13 | 53.61989 | -3.75722 | 17946 ft | 394 kts | 271° |
| 2026-04-29 19:13 | 53.62200 | -3.80347 | 18563 ft | 398 kts | 271° |
| 2026-04-29 19:13 | 53.62400 | -3.85024 | 19114 ft | 402 kts | 270° |
| 2026-04-29 19:14 | 53.62587 | -3.89734 | 19694 ft | 404 kts | 270° |
| 2026-04-29 19:14 | 53.62769 | -3.94477 | 20275 ft | 407 kts | 270° |
| 2026-04-29 19:14 | 53.62950 | -3.99248 | 20863 ft | 409 kts | 270° |
| 2026-04-29 19:14 | 53.63134 | -4.04045 | 21457 ft | 411 kts | 270° |
| 2026-04-29 19:15 | 53.63319 | -4.08865 | 22036 ft | 414 kts | 270° |
| 2026-04-29 19:15 | 53.63506 | -4.13714 | 22618 ft | 416 kts | 270° |
| 2026-04-29 19:15 | 53.63697 | -4.18594 | 23233 ft | 418 kts | 270° |
| 2026-04-29 19:15 | 53.63885 | -4.23479 | 23845 ft | 418 kts | 270° |
| 2026-04-29 19:16 | 53.64071 | -4.28378 | 24328 ft | 420 kts | 270° |
| 2026-04-29 19:16 | 53.64198 | -4.31708 | 24642 ft | 421 kts | 270° |
| 2026-04-29 19:16 | 53.64382 | -4.36649 | 25085 ft | 423 kts | 270° |
| 2026-04-29 19:16 | 53.64562 | -4.41614 | 25524 ft | 426 kts | 269° |
| 2026-04-29 19:17 | 53.64741 | -4.46600 | 25968 ft | 428 kts | 269° |
| 2026-04-29 19:17 | 53.64921 | -4.51621 | 26382 ft | 430 kts | 269° |
| 2026-04-29 19:17 | 53.65100 | -4.56663 | 26805 ft | 432 kts | 269° |
| 2026-04-29 19:17 | 53.65275 | -4.61725 | 27229 ft | 434 kts | 269° |
| 2026-04-29 19:18 | 53.65449 | -4.66816 | 27663 ft | 436 kts | 269° |
| 2026-04-29 19:18 | 53.65566 | -4.70196 | 27953 ft | 437 kts | 269° |
| 2026-04-29 19:18 | 53.65797 | -4.77080 | 28459 ft | 441 kts | 268° |
| 2026-04-29 19:18 | 53.65966 | -4.82259 | 28868 ft | 444 kts | 268° |
| 2026-04-29 19:19 | 53.66134 | -4.87461 | 29265 ft | 446 kts | 268° |
| 2026-04-29 19:19 | 53.66304 | -4.92702 | 29664 ft | 448 kts | 268° |
| 2026-04-29 19:19 | 53.66474 | -4.97954 | 30052 ft | 450 kts | 268° |
| 2026-04-29 19:19 | 53.66645 | -5.03240 | 30415 ft | 453 kts | 268° |
| 2026-04-29 19:20 | 53.66811 | -5.08552 | 30718 ft | 455 kts | 268° |
| 2026-04-29 19:20 | 53.66976 | -5.13892 | 31003 ft | 458 kts | 268° |
| 2026-04-29 19:20 | 53.67138 | -5.19266 | 31283 ft | 460 kts | 268° |
| 2026-04-29 19:20 | 53.67298 | -5.24672 | 31564 ft | 463 kts | 268° |
| 2026-04-29 19:21 | 53.67454 | -5.30119 | 31817 ft | 466 kts | 268° |
| 2026-04-29 19:21 | 53.67607 | -5.35579 | 32194 ft | 466 kts | 268° |
| 2026-04-29 19:21 | 53.67757 | -5.41026 | 32591 ft | 466 kts | 268° |
| 2026-04-29 19:21 | 53.67937 | -5.46482 | 32969 ft | 467 kts | 271° |
| 2026-04-29 19:22 | 53.68516 | -5.52061 | 33350 ft | 472 kts | 281° |
| 2026-04-29 19:22 | 53.69524 | -5.57354 | 33736 ft | 475 kts | 286° |
| 2026-04-29 19:22 | 53.70620 | -5.62599 | 34126 ft | 474 kts | 286° |
| 2026-04-29 19:22 | 53.71714 | -5.67852 | 34496 ft | 474 kts | 286° |
| 2026-04-29 19:23 | 53.72800 | -5.73098 | 34822 ft | 474 kts | 286° |
| 2026-04-29 19:23 | 53.73883 | -5.78348 | 35136 ft | 473 kts | 286° |
| 2026-04-29 19:23 | 53.74965 | -5.83605 | 35444 ft | 473 kts | 286° |
| 2026-04-29 19:23 | 53.76042 | -5.88849 | 35734 ft | 473 kts | 287° |
| 2026-04-29 19:24 | 53.77119 | -5.94104 | 36021 ft | 473 kts | 287° |
| 2026-04-29 19:24 | 53.78192 | -5.99353 | 36302 ft | 473 kts | 287° |
| 2026-04-29 19:24 | 53.79276 | -6.04677 | 36583 ft | 472 kts | 287° |
| 2026-04-29 19:24 | 53.80341 | -6.09924 | 36847 ft | 472 kts | 287° |
| 2026-04-29 19:25 | 53.81405 | -6.15187 | 37101 ft | 472 kts | 287° |
| 2026-04-29 19:25 | 53.82465 | -6.20435 | 37348 ft | 472 kts | 287° |
| 2026-04-29 19:25 | 53.83520 | -6.25663 | 37579 ft | 472 kts | 287° |
| 2026-04-29 19:25 | 53.84582 | -6.30956 | 37785 ft | 473 kts | 287° |
| 2026-04-29 19:26 | 53.85640 | -6.36248 | 37921 ft | 475 kts | 287° |
| 2026-04-29 19:26 | 53.86701 | -6.41566 | 38102 ft | 476 kts | 287° |
| 2026-04-29 19:26 | 53.87762 | -6.46878 | 38275 ft | 477 kts | 287° |
| 2026-04-29 19:27 | 53.89894 | -6.57603 | 38289 ft | 476 kts | 287° |
| 2026-04-29 19:27 | 53.92010 | -6.68346 | 38291 ft | 476 kts | 287° |
| 2026-04-29 19:28 | 53.94139 | -6.79192 | 38287 ft | 476 kts | 287° |
| 2026-04-29 19:28 | 53.96251 | -6.90012 | 38291 ft | 477 kts | 287° |
| 2026-04-29 19:29 | 53.98387 | -7.01028 | 38291 ft | 478 kts | 286° |
| 2026-04-29 19:29 | 54.00455 | -7.11776 | 38294 ft | 479 kts | 286° |
| 2026-04-29 19:30 | 54.02516 | -7.22536 | 38289 ft | 479 kts | 286° |
| 2026-04-29 19:30 | 54.04577 | -7.33315 | 38276 ft | 479 kts | 286° |
| 2026-04-29 19:31 | 54.06631 | -7.44116 | 38297 ft | 480 kts | 287° |